Lubbock, TX

9:59 AM CDT on May 03, 2015 (GMT -0500)
WT_Meso | | Change Station
CLOSE
Current Station
Personal Weather Station
Location: Lubbock, TX
Elevation: 3231 ft
Nearby Weather Stations

Elev 3231 ft 33.60 °N, 101.90 °W | Updated 24 minutes ago

Partly Cloudy
Partly Cloudy
68 °F
Feels Like 68 °F
N
11
Wind Variable Wind from South
Gusts 15.0 mph

Today
High -- | Low -- °F
--% Chance of Precip.
Yesterday
High -- | Low -- °F
Precip. -- in
6:57 AM 8:31 PM
Full, 100% visible
Pressure 29.84 in
Visibility 10.0 miles
Clouds Scattered Clouds 11000 ft
Scattered Clouds 15000 ft
Scattered Clouds 26000 ft
Dew Point 46 °F
Humidity 46%
Rainfall in
Snow Depth Not available.
UV 4 out of 12
Pollen 6.30 out of 12
Air Quality Not available.
Flu Activity Sporadic
METAR KLBB 031453Z 18011KT 10SM SCT110 SCT150 SCT260 21/09 A2997 RMK AO2 SLP103 VIRGA DSNT W-NW T02060089 57001

More Conditions Fewer Conditions

Pressure 29.84 in
Visibility 10.0 miles
Clouds Scattered Clouds 11000 ft
Scattered Clouds 15000 ft
Scattered Clouds 26000 ft
Dew Point 46 °F
Humidity 46%
Rainfall in
Snow Depth Not available.
UV 4 out of 12
Pollen 6.30 out of 12
Air Quality Not available.
Flu Activity Sporadic
METAR KLBB 031453Z 18011KT 10SM SCT110 SCT150 SCT260 21/09 A2997 RMK AO2 SLP103 VIRGA DSNT W-NW T02060089 57001

More Conditions Fewer Conditions

Nepal has a long way to go to dig out and rebuild from a devastating earthquake. We have teamed up with several charities and organizations to make contributing to the relief effort as easy as possible.
How you can help: Portlight Strategies | Red Cross

10-Day Weather Forecast

Almanac

Astronomy

May. 03, 2015 Rise Set
Actual Time
Civil Twilight
Nautical Twilight
Astronomical Twilight
Moon
Length of Visible Light
Length of Day
Tomorrow will be .
, % of the Moon is Illuminated

Today's Extremes

State Highs State Lows

Community

WunderPhotos

Upload Photos

1,818,246 photos uploaded!

WunderBlogs® & News

Nearby

Air Quality

  Air Quality AQ Index Pollutant
Not available.

Snow Depth

Station Depth Elevation

Earthquake Activity

City Distance Mag. Time & Date
Minimum magnitude displayed is 2.5.

Coastal Water Temperatures

Place Temperature

Stations

Nearby Weather Stations

Station Location Temp. Windchill Dew Point Humidity Wind Precip. Elev Updated Type